createdAt,value
2022-08-11T00:04:39.584Z,3.87
2022-08-11T00:09:42.318Z,4.97
2022-08-11T00:14:45.008Z,5.63
2022-08-11T00:20:11.856Z,5.27
2022-08-11T00:25:19.078Z,5.10
2022-08-11T00:30:21.290Z,4.30
2022-08-11T00:35:55.336Z,6.40
2022-08-11T00:41:00.021Z,4.17
2022-08-11T00:46:26.511Z,6.73
2022-08-11T00:52:05.653Z,6.10
2022-08-11T00:57:36.860Z,3.45
2022-08-11T01:02:59.624Z,9.67
2022-08-11T01:08:13.749Z,5.70
2022-08-11T01:13:37.652Z,6.60
2022-08-11T01:18:55.016Z,3.60
2022-08-11T01:24:18.552Z,3.50
2022-08-11T01:29:58.337Z,4.43
2022-08-11T01:35:30.965Z,3.28
2022-08-11T01:40:42.598Z,6.67
2022-08-11T01:45:56.594Z,3.03
2022-08-11T01:51:31.261Z,2.63
2022-08-11T01:56:57.338Z,5.07
2022-08-11T02:02:46.220Z,5.00
2022-08-11T02:08:02.002Z,4.20
2022-08-11T02:13:11.755Z,5.00
2022-08-11T02:18:53.560Z,6.03
2022-08-11T02:24:07.882Z,3.17
2022-08-11T02:29:13.905Z,3.17
2022-08-11T02:34:39.536Z,3.30
2022-08-11T02:40:25.386Z,3.27
2022-08-11T02:45:46.510Z,6.03
2022-08-11T02:51:10.009Z,4.93
2022-08-11T02:56:23.207Z,2.60
2022-08-11T03:01:50.610Z,2.67
2022-08-11T03:06:54.416Z,4.57
2022-08-11T03:12:30.122Z,5.70
2022-08-11T03:18:10.799Z,7.60
2022-08-11T03:23:44.960Z,4.57
2022-08-11T03:29:18.333Z,5.67
2022-08-11T03:34:27.483Z,7.38
2022-08-11T03:39:59.592Z,5.83
2022-08-11T03:45:29.181Z,13.27
2022-08-11T03:50:44.879Z,12.35
2022-08-11T03:56:24.939Z,10.17
2022-08-11T04:01:55.750Z,9.07
2022-08-11T04:07:07.041Z,11.23
2022-08-11T04:12:35.639Z,7.27
2022-08-11T04:18:11.469Z,6.28
2022-08-11T04:24:35.439Z,4.90
2022-08-11T04:29:09.699Z,5.27
2022-08-11T04:34:51.837Z,4.67
2022-08-11T04:40:12.652Z,7.32
2022-08-11T04:46:01.519Z,3.90
2022-08-11T04:51:48.745Z,4.27
2022-08-11T04:57:20.220Z,3.30
2022-08-11T05:02:50.616Z,2.33
2022-08-11T05:08:15.306Z,2.60
2022-08-11T05:13:47.184Z,3.60
2022-08-11T05:19:12.116Z,4.47
2022-08-11T05:24:54.747Z,3.13
2022-08-11T05:30:34.488Z,3.27
2022-08-11T05:36:01.649Z,5.00
2022-08-11T05:41:23.886Z,2.43
2022-08-11T05:46:46.727Z,3.20
2022-08-11T05:52:12.963Z,3.27
2022-08-11T05:57:49.461Z,3.43
2022-08-11T06:02:55.630Z,3.90
2022-08-11T06:08:01.315Z,4.00
2022-08-11T06:13:05.309Z,2.80
2022-08-11T06:18:12.323Z,3.47
2022-08-11T06:23:18.234Z,3.90
2022-08-11T06:28:30.828Z,3.30
2022-08-11T06:33:51.512Z,3.83
2022-08-11T06:39:10.187Z,5.03
2022-08-11T06:44:13.451Z,2.83
2022-08-11T06:49:35.712Z,2.80
2022-08-11T06:54:41.663Z,6.90
2022-08-11T07:00:02.860Z,5.10
2022-08-11T07:05:21.824Z,2.47
2022-08-11T07:11:05.585Z,2.73
2022-08-11T07:16:12.118Z,10.77
2022-08-11T07:22:00.281Z,4.47
2022-08-11T07:27:23.657Z,2.23
2022-08-11T07:32:31.211Z,2.57
2022-08-11T07:37:34.203Z,3.10
2022-08-11T07:42:36.649Z,3.10
2022-08-11T07:47:58.441Z,2.17
2022-08-11T07:53:01.686Z,3.10
2022-08-11T07:58:23.021Z,2.00
2022-08-11T08:03:53.661Z,2.50
2022-08-11T08:09:16.597Z,3.63
2022-08-11T08:14:38.255Z,2.08
2022-08-11T08:19:44.801Z,2.15
2022-08-11T08:24:47.650Z,1.60
2022-08-11T08:30:08.421Z,2.08
2022-08-11T08:35:13.941Z,1.60
2022-08-11T08:40:16.201Z,1.88
2022-08-11T08:45:26.236Z,3.75
2022-08-11T08:50:53.228Z,2.88
2022-08-11T08:55:57.149Z,2.10
2022-08-11T09:01:01.300Z,2.05
2022-08-11T09:06:06.281Z,3.75
2022-08-11T09:11:27.568Z,4.00
2022-08-11T09:16:30.304Z,4.68
2022-08-11T09:21:48.396Z,3.55
2022-08-11T09:27:04.213Z,2.70
2022-08-11T09:32:09.601Z,2.13
2022-08-11T09:37:54.045Z,3.08
2022-08-11T09:43:27.560Z,3.45
2022-08-11T09:48:32.176Z,2.60
2022-08-11T09:53:40.779Z,3.78
2022-08-11T09:58:45.093Z,4.50
2022-08-11T10:03:48.102Z,5.03
2022-08-11T10:08:52.668Z,6.30
2022-08-11T10:14:33.795Z,4.40
2022-08-11T10:19:39.365Z,2.83
2022-08-11T10:25:03.170Z,3.13
2022-08-11T10:30:25.906Z,2.15
2022-08-11T10:35:31.414Z,3.38
2022-08-11T10:40:46.462Z,2.55
2022-08-11T10:46:30.135Z,3.30
2022-08-11T10:51:54.396Z,2.40
2022-08-11T10:57:19.924Z,2.45
2022-08-11T11:02:22.475Z,5.90
2022-08-11T11:07:43.990Z,2.97
2022-08-11T11:13:14.223Z,4.07
2022-08-11T11:18:24.867Z,4.45
2022-08-11T11:23:47.620Z,3.30
2022-08-11T11:29:27.892Z,3.05
2022-08-11T11:34:53.420Z,2.60
2022-08-11T11:39:57.985Z,2.55
2022-08-11T11:45:01.480Z,3.95
2022-08-11T11:50:06.889Z,3.83
2022-08-11T11:55:10.021Z,3.97
2022-08-11T12:00:33.144Z,2.85
2022-08-11T12:05:36.847Z,4.05
2022-08-11T12:11:18.825Z,4.40
2022-08-11T12:16:34.484Z,6.00
2022-08-11T12:22:00.832Z,4.57
2022-08-11T12:27:25.553Z,2.75
2022-08-11T12:32:31.562Z,2.33
2022-08-11T12:37:38.544Z,2.30
2022-08-11T12:43:20.806Z,2.45
2022-08-11T12:48:58.358Z,5.35
2022-08-11T12:54:18.928Z,2.80
2022-08-11T12:59:40.628Z,3.05
2022-08-11T13:04:56.487Z,2.78
2022-08-11T13:10:02.025Z,3.55
2022-08-11T13:15:06.283Z,2.92
2022-08-11T13:20:10.774Z,6.55
2022-08-11T13:25:15.104Z,3.72
2022-08-11T13:30:40.357Z,2.22
2022-08-11T13:35:49.760Z,3.25
2022-08-11T13:40:56.073Z,3.95
2022-08-11T13:46:18.749Z,4.70
2022-08-11T13:51:34.700Z,4.25
2022-08-11T13:56:42.619Z,4.15
2022-08-11T14:02:21.285Z,4.28
2022-08-11T14:07:15.381Z,3.40
2022-08-11T14:12:45.666Z,6.32
2022-08-11T14:18:05.282Z,6.40
2022-08-11T14:23:08.962Z,3.58
2022-08-11T14:28:29.586Z,3.92
2022-08-11T14:33:58.074Z,3.95
2022-08-11T14:38:57.926Z,2.80
2022-08-11T14:44:18.664Z,3.88
2022-08-11T14:49:22.333Z,8.45
2022-08-11T14:54:48.570Z,6.00
2022-08-11T14:59:51.395Z,4.78
2022-08-11T15:04:53.709Z,2.63
2022-08-11T15:10:15.521Z,5.55
2022-08-11T15:15:56.615Z,3.03
2022-08-11T15:21:17.083Z,4.25
2022-08-11T15:26:41.756Z,3.85
2022-08-11T15:32:02.500Z,8.82
2022-08-11T15:37:26.814Z,6.60
2022-08-11T15:42:48.087Z,14.05
2022-08-11T15:47:58.412Z,17.15
2022-08-11T15:53:12.689Z,19.83
2022-08-11T15:58:34.406Z,23.88
2022-08-11T16:04:12.584Z,18.35
2022-08-11T16:09:18.310Z,10.80
2022-08-11T16:14:41.821Z,9.70
2022-08-11T16:19:44.754Z,14.05
2022-08-11T16:27:03.507Z,8.98
2022-08-11T16:30:15.194Z,8.25
2022-08-11T16:35:38.457Z,9.52
2022-08-11T16:40:42.426Z,23.52
2022-08-11T16:46:03.697Z,23.25
2022-08-11T16:51:07.629Z,14.18
2022-08-11T16:56:12.341Z,9.63
2022-08-11T17:01:15.368Z,9.90
2022-08-11T17:06:37.106Z,10.30
2022-08-11T17:12:08.469Z,13.73
2022-08-11T17:17:26.885Z,18.02
2022-08-11T17:22:49.156Z,21.33
2022-08-11T17:27:52.912Z,32.03
2022-08-11T17:33:13.811Z,29.63
2022-08-11T17:38:20.952Z,17.20
2022-08-11T17:43:41.709Z,12.75
2022-08-11T17:48:47.813Z,24.55
2022-08-11T17:54:23.962Z,23.90
2022-08-11T17:59:49.112Z,23.63
2022-08-11T18:04:52.959Z,21.75
2022-08-11T18:10:13.799Z,17.13
2022-08-11T18:15:35.224Z,19.98
2022-08-11T18:20:56.385Z,19.10
2022-08-11T18:26:19.816Z,17.30
2022-08-11T18:31:41.434Z,27.73
2022-08-11T18:37:19.563Z,26.33
2022-08-11T18:42:46.866Z,41.23
2022-08-11T18:48:11.407Z,26.67
2022-08-11T18:53:33.706Z,30.20
2022-08-11T18:58:55.106Z,33.47
2022-08-11T19:04:17.473Z,27.00
2022-08-11T19:09:43.183Z,34.23
2022-08-11T19:15:05.017Z,33.37
2022-08-11T19:20:35.499Z,31.60
2022-08-11T19:25:56.964Z,28.80
2022-08-11T19:31:19.283Z,31.30
2022-08-11T19:36:41.724Z,29.63
2022-08-11T19:42:03.547Z,36.10
2022-08-11T19:47:24.305Z,28.07
2022-08-11T19:52:48.217Z,38.30
2022-08-11T19:58:09.557Z,44.37
2022-08-11T20:03:30.921Z,46.50
2022-08-11T20:08:56.439Z,39.37
2022-08-11T20:14:20.210Z,29.20
2022-08-11T20:19:54.717Z,39.50
2022-08-11T20:25:17.659Z,59.13
2022-08-11T20:30:38.344Z,56.60
2022-08-11T20:36:01.620Z,74.00
2022-08-11T20:41:23.426Z,45.17
2022-08-11T20:46:44.715Z,37.27
2022-08-11T20:52:06.476Z,27.77
2022-08-11T20:57:58.629Z,12.80
2022-08-11T21:03:12.911Z,11.90
2022-08-11T21:08:35.233Z,22.67
2022-08-11T21:13:58.618Z,22.73
2022-08-11T21:20:01.152Z,26.20
2022-08-11T21:25:28.006Z,29.23
2022-08-11T21:30:49.589Z,88.50
2022-08-11T21:36:10.851Z,69.40
2022-08-11T21:41:31.670Z,87.13
2022-08-11T21:46:53.429Z,122.57
2022-08-11T21:52:14.628Z,107.73
2022-08-11T21:57:35.803Z,111.93
2022-08-11T22:03:08.902Z,94.37
2022-08-11T22:08:30.141Z,69.30
2022-08-11T22:14:00.785Z,56.20
2022-08-11T22:19:27.615Z,57.80
2022-08-11T22:24:49.390Z,53.63
2022-08-11T22:30:10.104Z,42.53
2022-08-11T22:35:31.399Z,39.90
2022-08-11T22:40:53.071Z,38.03
2022-08-11T22:46:13.858Z,40.43
2022-08-11T22:51:37.101Z,36.47
2022-08-11T22:56:57.901Z,42.50
2022-08-11T23:02:19.314Z,46.33
2022-08-11T23:07:50.734Z,54.07
2022-08-11T23:13:13.194Z,62.70
2022-08-11T23:18:34.424Z,50.77
2022-08-11T23:23:55.922Z,57.33
2022-08-11T23:29:17.085Z,55.87
2022-08-11T23:35:02.704Z,53.27
2022-08-11T23:40:21.403Z,52.10
2022-08-11T23:45:44.901Z,52.30
2022-08-11T23:51:06.573Z,48.63
2022-08-11T23:56:29.205Z,44.17
